Latest Weather Observations for Bairnsdale

IDV60801

Issued at 6:32 am EDT Saturday 3 December 2016 (issued every 30 minutes, with the page automatically refreshed every 10 minutes)

About weather observations | Map of weather stations | Latest weather observations for VIC | Other Formats
Station Details ID: 085279 Name: BAIRNSDALE AIRPORT Lat: -37.88 Lon: 147.57 Height: 49.4 m
Data from the previous 72 hours. | See also: Recent months at Bairnsdale
Date/Time
EDT
Temp
°C
App
Temp
°C
Dew
Point
°C
Rel
Hum
%
Delta-T
°C
Wind Press
QNH
hPa
Press
MSL
hPa
Rain since
9am
mm
Dir  Spd
km/h
Gust
km/h
Spd
kts
Gust
kts
03/06:30am 13.2 11.8 9.5 78 1.9 SSW 7 9 4 5 1015.9 1015.8 0.0
03/06:00am 12.9 11.4 9.2 78 1.9 SSW 7 9 4 5 1015.8 1015.7 0.0
03/05:30am 12.8 11.2 8.7 76 2.1 SSW 7 9 4 5 1015.5 1015.4 0.0
03/05:00am 12.9 10.8 8.2 73 2.3 SSW 9 11 5 6 1015.1 1015.0 0.0
03/04:30am 13.0 10.8 7.9 71 2.5 SSW 9 11 5 6 1015.0 1014.9 0.0
03/04:00am 13.1 10.4 7.5 69 2.7 SSW 11 15 6 8 1015.0 1014.9 0.0
03/03:30am 13.3 10.6 7.5 68 2.8 S 11 13 6 7 1015.3 1015.2 0.0
03/03:00am 13.5 11.2 7.5 67 2.9 S 9 13 5 7 1015.5 1015.4 0.0
03/02:30am 13.8 11.4 6.9 63 3.4 S 9 11 5 6 1015.7 1015.6 0.0
03/02:00am 14.0 11.6 6.8 62 3.5 S 9 13 5 7 1016.0 1015.9 0.0
03/01:30am 14.1 11.9 7.9 66 3.1 S 9 13 5 7 1016.3 1016.2 0.0
03/01:00am 14.5 13.5 10.3 76 2.2 SE 6 6 3 3 1016.3 1016.2 0.0
03/12:30am 14.6 13.6 10.4 76 2.2 SE 6 7 3 4 1016.4 1016.3 0.0
03/12:00am 14.6 13.6 10.4 76 2.2 SE 6 7 3 4 1016.4 1016.3 0.0
 
Date/Time
EDT
Temp
°C
App
Temp
°C
Dew
Point
°C
Rel
Hum
%
Delta-T
°C
Wind Press
QNH
hPa
Press
MSL
hPa
Rain since
9am
mm
Dir  Spd
km/h
Gust
km/h
Spd
kts
Gust
kts
02/11:30pm 14.6 13.1 10.4 76 2.2 SSE 9 11 5 6 1016.4 1016.3 0.0
02/11:00pm 14.7 13.2 10.7 77 2.1 SSE 9 11 5 6 1016.5 1016.4 0.0
02/10:30pm 14.7 13.3 10.9 78 2.0 SE 9 13 5 7 1016.4 1016.3 0.0
02/10:00pm 14.9 13.5 10.9 77 2.1 SE 9 11 5 6 1016.4 1016.3 0.0
02/09:30pm 15.1 13.3 10.9 76 2.2 SE 11 13 6 7 1016.0 1015.9 0.0
02/09:00pm 15.2 13.9 11.4 78 2.0 ESE 9 13 5 7 1015.6 1015.5 0.0
02/08:30pm 15.2 13.9 11.4 78 2.0 ESE 9 13 5 7 1015.3 1015.2 0.0
02/08:00pm 15.5 13.9 11.5 77 2.2 ESE 11 15 6 8 1014.8 1014.7 0.0
02/07:30pm 15.8 13.8 11.4 75 2.4 SSE 13 19 7 10 1014.5 1014.4 0.0
02/07:00pm 16.2 13.4 11.4 73 2.6 SE 17 20 9 11 1014.0 1013.9 0.0
02/06:30pm 16.2 12.9 10.9 71 2.8 SE 19 24 10 13 1013.5 1013.4 0.0
02/06:00pm 16.9 14.1 11.2 69 3.1 SSE 17 22 9 12 1013.1 1013.0 0.0
02/05:30pm 16.9 13.5 11.2 69 3.1 SE 20 24 11 13 1012.8 1012.7 0.0
02/05:00pm 17.3 14.0 11.6 69 3.1 SSE 20 28 11 15 1012.6 1012.5 0.0
02/04:30pm 17.5 13.0 11.5 68 3.3 SSE 26 33 14 18 1012.4 1012.3 0.0
02/04:00pm 18.3 14.6 11.4 64 3.8 SSE 22 33 12 18 1012.1 1012.0 0.0
02/03:30pm 19.0 15.1 10.8 59 4.5 SSE 22 30 12 16 1011.9 1011.8 0.0
02/03:00pm 19.9 18.6 13.6 67 3.6 SE 13 20 7 11 1011.7 1011.6 0.0
02/02:30pm 19.0 17.1 11.8 63 4.0 SSE 13 17 7 9 1011.6 1011.5 0.0
02/02:00pm 18.7 15.9 12.7 68 3.4 SSE 19 24 10 13 1011.4 1011.3 0.0
02/01:30pm 18.9 17.2 12.6 67 3.5 SSE 13 24 7 13 1011.2 1011.1 0.0
02/01:00pm 19.9 17.9 12.7 63 4.1 S 15 24 8 13 1011.0 1010.9 0.0
02/12:30pm 21.3 18.8 14.0 63 4.2 SSW 20 30 11 16 1011.0 1010.9 0.0
02/12:00pm 19.0 16.3 13.0 68 3.4 S 19 24 10 13 1010.8 1010.7 0.0
02/11:30am 18.8 17.4 12.3 66 3.6 SW 11 17 6 9 1010.7 1010.6 0.0
02/11:00am 18.0 17.1 12.5 70 3.1 SSW 9 15 5 8 1010.6 1010.5 0.0
02/10:30am 17.5 16.2 12.6 73 2.7 SSW 11 15 6 8 1010.6 1010.5 0.0
02/10:29am 17.4 16.0 12.3 72 2.8 SSW 11 15 6 8 1010.6 1010.5 0.0
02/10:00am 16.0 14.3 12.6 80 1.9 SSW 13 17 7 9 1010.6 1010.5 0.0
02/09:30am 15.7 13.2 12.3 80 1.9 SSW 17 20 9 11 1010.4 1010.3 0.0
02/09:16am 16.0 13.1 12.2 78 2.1 SSW 19 26 10 14 1010.3 1010.2 0.0
02/09:00am 16.4 14.3 13.5 83 1.6 SW 17 20 9 11 1010.0 1009.9 0.2
02/08:30am 17.0 15.5 14.1 83 1.7 SW 15 20 8 11 1009.7 1009.6 0.2
02/08:12am 16.7 15.2 14.2 85 1.4 SW 15 20 8 11 1009.4 1009.3 0.2
02/08:00am 16.1 14.5 13.8 86 1.3 SW 15 19 8 10 1009.3 1009.2 0.2
02/07:30am 15.4 15.1 14.3 93 0.6 WSW 9 11 5 6 1008.7 1008.6 0.2
02/07:00am 14.9 15.0 14.4 97 0.3 NW 7 9 4 5 1008.0 1007.9 0.2
02/06:30am 14.3 13.8 13.8 97 0.3 NW 9 11 5 6 1007.5 1007.4 0.2
02/06:00am 14.1 13.5 13.6 97 0.3 NW 9 11 5 6 1007.2 1007.1 0.2
02/05:30am 14.0 13.4 13.5 97 0.3 NW 9 11 5 6 1006.8 1006.7 0.2
02/05:00am 13.8 13.1 13.3 97 0.3 NW 9 13 5 7 1006.9 1006.8 0.2
02/04:30am 13.7 13.0 13.2 97 0.3 NW 9 13 5 7 1006.9 1006.8 0.2
02/04:00am 13.7 13.3 13.1 96 0.3 NNW 7 9 4 5 1006.7 1006.6 0.2
02/03:30am 14.9 15.0 14.4 97 0.3 SW 7 9 4 5 1006.7 1006.6 0.2
02/03:00am 15.0 15.2 14.7 98 0.2 SSW 7 9 4 5 1006.7 1006.6 0.2
02/02:30am 14.6 14.6 14.3 98 0.2 SSW 7 9 4 5 1006.5 1006.4 0.2
02/02:00am 12.3 11.2 11.8 97 0.3 SW 9 9 5 5 1006.5 1006.4 0.2
02/01:30am 12.1 11.5 11.6 97 0.3 SSW 6 7 3 4 1006.6 1006.5 0.2
02/01:00am 11.9 11.0 11.3 96 0.3 W 7 7 4 4 1006.7 1006.6 0.2
02/12:52am 11.9 11.0 11.3 96 0.3 W 7 9 4 5 1006.8 1006.7 0.2
02/12:30am 13.1 13.9 12.5 96 0.3 CALM 0 0 0 0 1006.7 1006.6 0.2
02/12:00am 13.4 14.2 12.6 95 0.4 CALM 0 0 0 0 1007.0 1006.9 0.2
 
Date/Time
EDT
Temp
°C
App
Temp
°C
Dew
Point
°C
Rel
Hum
%
Delta-T
°C
Wind Press
QNH
hPa
Press
MSL
hPa
Rain since
9am
mm
Dir  Spd
km/h
Gust
km/h
Spd
kts
Gust
kts
01/11:30pm 13.2 13.9 12.3 94 0.5 CALM 0 4 0 2 1007.2 1007.1 0.2
01/11:00pm 13.8 13.4 12.5 92 0.7 S 6 7 3 4 1007.2 1007.1 0.2
01/10:30pm 15.2 14.6 13.4 89 1.0 SSE 9 11 5 6 1007.3 1007.2 0.2
01/10:00pm 15.5 14.5 13.3 87 1.2 SSE 11 13 6 7 1007.2 1007.1 0.2
01/09:30pm 16.0 15.4 13.5 85 1.4 SE 9 13 5 7 1007.2 1007.1 0.2
01/09:00pm 16.5 16.0 13.8 84 1.5 ESE 9 11 5 6 1007.0 1006.9 0.2
01/08:30pm 16.6 15.3 13.7 83 1.6 ESE 13 15 7 8 1006.6 1006.5 0.2
01/08:00pm 17.4 16.8 13.5 78 2.2 SE 9 13 5 7 1006.7 1006.6 0.2
01/07:30pm 17.7 16.7 13.4 76 2.4 ESE 11 17 6 9 1006.6 1006.5 0.2
01/07:00pm 18.1 15.9 13.2 73 2.8 E 17 20 9 11 1006.2 1006.1 0.2
01/06:30pm 18.9 17.4 13.1 69 3.3 ESE 13 19 7 10 1006.0 1005.9 0.2
01/06:00pm 19.1 17.5 12.8 67 3.6 SE 13 20 7 11 1006.1 1006.0 0.2
01/05:30pm 19.1 16.7 12.6 66 3.6 SE 17 22 9 12 1006.1 1006.0 0.2
01/05:00pm 20.1 18.0 13.6 66 3.7 SE 17 22 9 12 1006.1 1006.0 0.2
01/04:30pm 19.7 17.1 13.2 66 3.7 SE 19 26 10 14 1005.9 1005.8 0.2
01/04:00pm 20.0 17.4 13.2 65 3.9 SE 19 24 10 13 1006.2 1006.1 0.2
01/03:30pm 20.5 18.0 13.5 64 4.0 SE 19 26 10 14 1006.1 1006.0 0.2
01/03:00pm 21.5 19.1 13.7 61 4.5 SE 19 30 10 16 1006.1 1006.0 0.2
01/02:30pm 21.7 19.1 13.9 61 4.5 SSE 20 28 11 15 1006.3 1006.2 0.2
01/02:00pm 22.4 19.4 13.7 58 5.1 SSE 22 32 12 17 1006.3 1006.2 0.2
01/01:30pm 23.1 21.7 13.3 54 5.7 S 13 20 7 11 1006.4 1006.3 0.2
01/01:00pm 22.4 20.6 13.2 56 5.3 SSE 15 22 8 12 1006.6 1006.5 0.2
01/12:30pm 22.1 20.4 13.7 59 4.9 SSW 15 22 8 12 1006.7 1006.6 0.2
01/12:00pm 22.0 21.0 14.6 63 4.4 SSW 13 22 7 12 1006.7 1006.6 0.2
01/11:30am 21.0 20.6 12.9 60 4.6 WSW 7 19 4 10 1006.9 1006.8 0.2
01/11:00am 20.5 19.3 12.7 61 4.4 WNW 11 17 6 9 1007.2 1007.1 0.0
01/10:30am 19.7 18.5 13.9 69 3.3 W 13 19 7 10 1007.6 1007.6 0.0
01/10:00am 18.6 16.1 12.4 67 3.5 W 17 22 9 12 1007.7 1007.7 0.0
01/09:30am 18.0 16.4 12.7 71 3.0 W 13 19 7 10 1007.9 1007.9 0.0
01/09:00am 17.5 16.6 12.6 73 2.7 W 9 13 5 7 1007.9 1007.9 0.4
01/08:30am 16.9 15.2 12.4 75 2.5 WNW 13 17 7 9 1007.7 1007.7 0.4
01/08:00am 16.8 14.2 11.9 73 2.7 W 17 24 9 13 1007.8 1007.8 0.4
01/07:30am 15.8 13.6 12.2 79 2.0 W 15 22 8 12 1007.5 1007.5 0.4
01/07:00am 14.7 13.7 12.4 86 1.3 NW 9 11 5 6 1007.3 1007.3 0.4
01/06:30am 13.3 12.2 11.9 91 0.8 NW 9 11 5 6 1007.2 1007.2 0.4
01/06:00am 13.9 12.9 12.3 90 0.9 NW 9 13 5 7 1007.6 1007.6 0.4
01/05:30am 14.2 12.9 12.6 90 0.9 WNW 11 15 6 8 1007.5 1007.5 0.4
01/05:00am 14.2 12.9 12.6 90 0.9 WNW 11 13 6 7 1007.4 1007.4 0.4
01/04:30am 14.3 13.3 12.3 88 1.1 WNW 9 13 5 7 1007.5 1007.5 0.4
01/04:00am 14.6 13.3 12.5 87 1.2 W 11 15 6 8 1007.6 1007.6 0.4
01/03:30am 14.8 13.1 12.5 86 1.3 W 13 17 7 9 1007.7 1007.7 0.4
01/03:00am 14.9 13.2 12.6 86 1.3 W 13 19 7 10 1007.8 1007.8 0.4
01/02:30am 14.9 13.3 12.9 88 1.1 WNW 13 19 7 10 1008.2 1008.2 0.4
01/02:00am 15.2 13.8 13.4 89 1.0 W 13 17 7 9 1008.1 1008.1 0.4
01/01:30am 15.6 14.8 14.0 90 0.9 WNW 11 17 6 9 1008.2 1008.2 0.4
01/01:00am 15.7 14.9 13.9 89 1.0 W 11 13 6 7 1008.3 1008.3 0.4
01/12:30am 15.7 14.9 13.9 89 1.0 W 11 15 6 8 1008.5 1008.4 0.4
01/12:02am 15.8 15.4 14.2 90 0.9 W 9 15 5 8 1008.3 1008.3 0.4
01/12:00am 15.8 15.1 14.2 90 0.9 W 11 19 6 10 1008.5 1008.4 0.4
 
Date/Time
EDT
Temp
°C
App
Temp
°C
Dew
Point
°C
Rel
Hum
%
Delta-T
°C
Wind Press
QNH
hPa
Press
MSL
hPa
Rain since
9am
mm
Dir  Spd
km/h
Gust
km/h
Spd
kts
Gust
kts
30/11:31pm 15.7 16.7 14.2 91 0.9 WNW 2 13 1 7 1008.3 1008.3 0.4
30/11:30pm 15.7 16.7 14.2 91 0.9 WNW 2 7 1 4 1008.3 1008.3 0.4
30/11:00pm 16.0 16.2 14.2 89 1.0 NW 6 9 3 5 1008.3 1008.3 0.2
30/10:30pm 16.3 15.9 14.0 86 1.3 WSW 9 15 5 8 1008.5 1008.4 0.0
30/10:00pm 16.4 14.4 13.9 85 1.4 WSW 17 24 9 13 1008.7 1008.6 0.0
30/09:30pm 16.3 15.5 14.0 86 1.3 W 11 17 6 9 1008.5 1008.4 0.0
30/09:00pm 16.0 15.1 13.8 87 1.2 SW 11 17 6 9 1008.0 1008.0 0.0
30/08:30pm 16.3 14.7 14.0 86 1.3 SW 15 19 8 10 1007.8 1007.8 0.0
30/08:00pm 17.1 17.0 14.0 82 1.8 S 7 11 4 6 1007.8 1007.8 0.0
30/07:30pm 17.8 16.8 14.5 81 1.9 S 13 17 7 9 1007.2 1007.2 0.0
30/07:00pm 18.5 17.4 14.4 77 2.4 S 13 17 7 9 1007.1 1007.1 0.0
30/06:30pm 19.3 17.4 14.1 72 3.0 S 17 24 9 13 1006.8 1006.8 0.0
30/06:00pm 18.8 16.3 13.6 72 3.0 SSW 19 24 10 13 1006.4 1006.4 0.0
30/05:30pm 19.9 17.4 13.6 67 3.6 SW 19 26 10 14 1006.2 1006.2 0.0
30/05:00pm 21.2 17.9 13.9 63 4.2 SSW 24 28 13 15 1006.0 1006.0 0.0
30/04:30pm 20.7 17.4 12.9 61 4.4 SSW 22 30 12 16 1006.2 1006.2 0.0
30/04:00pm 21.5 17.6 13.2 59 4.8 SSW 26 32 14 17 1005.9 1005.9 0.0
30/03:30pm 21.4 18.4 13.8 62 4.4 S 22 28 12 15 1005.9 1005.9 0.0
30/03:00pm 21.7 19.0 14.6 64 4.2 S 22 30 12 16 1005.9 1005.9 0.0
30/02:30pm 21.4 19.0 14.3 64 4.2 S 20 28 11 15 1006.0 1006.0 0.0
30/02:00pm 21.9 20.0 15.7 68 3.7 S 20 28 11 15 1006.1 1006.1 0.0
30/01:30pm 22.7 20.8 15.3 63 4.4 SSW 19 26 10 14 1006.3 1006.3 0.0
30/01:00pm 22.5 21.7 16.1 67 3.9 S 15 22 8 12 1006.5 1006.5 0.0
30/12:30pm 22.5 22.0 15.8 66 4.0 SSW 13 20 7 11 1006.8 1006.8 0.0
30/12:00pm 22.6 22.1 15.0 62 4.5 ESE 11 19 6 10 1007.0 1007.0 0.0
30/11:30am 22.2 21.8 14.1 60 4.7 ESE 9 15 5 8 1007.2 1007.2 0.0
30/11:00am 21.2 20.8 13.1 60 4.6 SSE 7 11 4 6 1007.6 1007.6 0.0
30/10:30am 20.1 20.0 13.3 65 3.9 NNE 6 9 3 5 1007.8 1007.8 0.0
30/10:00am 18.3 17.9 12.3 68 3.3 NNE 6 9 3 5 1008.2 1008.2 0.0
30/09:30am 16.8 16.4 12.3 75 2.5 W 6 11 3 6 1008.6 1008.5 0.0
30/09:00am 15.9 16.1 13.0 83 1.6 WNW 4 6 2 3 1008.9 1008.8 0.0
30/08:35am 13.8 13.4 12.5 92 0.7 WNW 6 9 3 5 1009.0 1008.9 0.0
30/08:30am 13.5 13.1 12.4 93 0.6 WNW 6 9 3 5 1009.0 1008.9 0.0
30/08:00am 12.3 11.2 11.8 97 0.3 WNW 9 13 5 7 1009.2 1009.1 0.0
30/07:30am 11.5 10.2 11.2 98 0.2 NW 9 13 5 7 1009.2 1009.1 0.0
30/07:02am 10.5 8.9 10.2 98 0.2 NNW 9 11 5 6 1009.1 1009.0 0.0
30/07:00am 10.4 8.8 10.1 98 0.2 NNW 9 11 5 6 1009.1 1009.0 0.0

Other Formats:

Comma delimited format used in spreadsheet applications
http://www.bom.gov.au/fwo/IDV60801/IDV60801.94912.axf

JavaScript Object Notation format (JSON) in row-major order
http://www.bom.gov.au/fwo/IDV60801/IDV60801.94912.json